Ashtabula, Ohio
Current Conditions -  °F | °C
As of 10:53 PM on Monday 22 Dec 2014 (Local Time) from KHZY Reporting Station
Scattered Clouds Scattered Clouds  
Wind Chill: 27°   Ceiling: Unl
Heat Index: 35°   Visibility: 9mi
Dew Point: 28°   Wind: 10mph
Humidity: 76%   Direction: 140°SE
Pressure: 29.95"   Gusts: NA
Location:  41.89°N, 80.79°W
Report Text: KHZY 230353Z AUTO 14009KT 9SM SCT110 02/M02 A2995 RMK AO2 SLP150 T00171022
Loading
Personal Weather Stations






























Interactive Weather Map New forecast layout! Learn more

10-Day Weather Forecast

Advertisements
Track Severe Weather on mobile